»·PEaware :: DAL186 KPSC-KBFI

DAL186 :: KPSC-KBFI

FLIGHT INFORMATION

Flight Status: Arrived
Operator:
Delta Air Lines
More flights by this operator :: More flights under this callsign
Pilot: Josh G. (4619)
Aircraft: BOEING 737-800
(B738)
More flights by this aircraft type
Origin: KPSC Tri-Cities
United States
Destination: KBFI Boeing Field/King Co Intl
United States
More flights between these airports :: More routes between these airports
Route: +YKM CHINS2
File this flight plan on PilotEdge
Remarks:
Altitude:
(Current/Filed)
24,000ft
Speed:
(Current/Filed)
320kts
Departed: 12-Dec-17 08:25 PM
Arrived: 12-Dec-17 09:05 PM
Distance/Time
Traveled:
151nm/0:40
Distance/Time
To Go:
Arrived

Flight Plot

Page will automatically refresh every two minutes.

Flight plan parsing failed; only flown route is shown


Map Options




Map Legend


Flown Route
Filed Route
Departure Airport
Arrival Airport
Navaid (VOR, NDB)
Fix

Horizontal Profiles

Position Reports

Time Latitude Longitude Heading Altitude Ground
Speed
12-Dec-17 20:06 46.259263 -119.113495 268 408ft 0kts
12-Dec-17 20:07 46.259263 -119.113495 268 408ft 0kts
12-Dec-17 20:08 46.259263 -119.113495 268 408ft 0kts
12-Dec-17 20:09 46.259263 -119.113495 268 408ft 0kts
12-Dec-17 20:10 46.259263 -119.113495 268 408ft 0kts
12-Dec-17 20:11 46.259263 -119.113495 268 408ft 0kts
12-Dec-17 20:12 46.259263 -119.113495 268 408ft 0kts
12-Dec-17 20:13 46.259263 -119.113495 268 408ft 0kts
12-Dec-17 20:14 46.259263 -119.113495 268 408ft 0kts
12-Dec-17 20:15 46.259263 -119.113495 268 408ft 0kts
12-Dec-17 20:16 46.259263 -119.113495 268 408ft 0kts
12-Dec-17 20:17 46.259263 -119.113495 268 408ft 0kts
12-Dec-17 20:18 46.259263 -119.113495 268 408ft 0kts
12-Dec-17 20:19 46.259263 -119.113495 268 408ft 0kts
12-Dec-17 20:20 46.259263 -119.113495 268 408ft 0kts
12-Dec-17 20:21 46.259263 -119.113495 268 408ft 0kts
12-Dec-17 20:22 46.259263 -119.113495 268 408ft 0kts
12-Dec-17 20:23 46.259274 -119.112813 268 408ft 2kts
12-Dec-17 20:24 46.259282 -119.112298 268 408ft 0kts
12-Dec-17 20:25 46.259282 -119.112298 268 408ft 0kts
12-Dec-17 20:26 46.259278 -119.112519 268 408ft 3kts
12-Dec-17 20:27 46.259781 -119.112941 13 408ft 2kts
12-Dec-17 20:28 46.259042 -119.109921 125 408ft 14kts
12-Dec-17 20:29 46.257883 -119.107747 70 411ft 0kts
12-Dec-17 20:30 46.257883 -119.107747 70 411ft 0kts
12-Dec-17 20:31 46.259839 -119.108810 315 410ft 42kts
12-Dec-17 20:32 46.285613 -119.146070 313 1127ft 167kts
12-Dec-17 20:33 46.320800 -119.199722 314 2353ft 222kts
12-Dec-17 20:34 46.366534 -119.268463 314 4623ft 252kts
12-Dec-17 20:35 46.384518 -119.364888 279 7586ft 260kts
12-Dec-17 20:36 46.397474 -119.460678 283 10187ft 267kts
12-Dec-17 20:37 46.415956 -119.572943 284 12423ft 297kts
12-Dec-17 20:38 46.435784 -119.689429 283 15052ft 307kts
12-Dec-17 20:39 46.456074 -119.806983 284 17501ft 317kts
12-Dec-17 20:40 46.477817 -119.931331 284 19840ft 327kts
12-Dec-17 20:41 46.500747 -120.060835 284 22059ft 338kts
12-Dec-17 20:42 46.524515 -120.193296 285 23954ft 350kts
12-Dec-17 20:43 46.550952 -120.338829 285 23964ft 388kts
12-Dec-17 20:44 46.593917 -120.477577 315 24596ft 395kts
12-Dec-17 20:45 46.655155 -120.604296 293 24592ft 391kts
12-Dec-17 20:46 46.702768 -120.720890 302 23570ft 362kts
12-Dec-17 20:47 46.757293 -120.837924 303 21645ft 341kts
12-Dec-17 20:48 46.809488 -120.947812 303 19988ft 328kts
12-Dec-17 20:49 46.860276 -121.056407 302 18361ft 322kts
12-Dec-17 20:50 46.910715 -121.164924 302 16121ft 320kts
12-Dec-17 20:51 46.958502 -121.267632 302 14565ft 307kts
12-Dec-17 20:52 47.006128 -121.369814 303 13212ft 305kts
12-Dec-17 20:53 47.052804 -121.469744 303 11676ft 286kts
12-Dec-17 20:54 47.095615 -121.561969 303 11012ft 272kts
12-Dec-17 20:55 47.136434 -121.651051 302 11013ft 274kts
12-Dec-17 20:56 47.178532 -121.742842 301 11013ft 276kts
12-Dec-17 20:57 47.220674 -121.834874 303 10381ft 268kts
12-Dec-17 20:58 47.261621 -121.925169 304 8805ft 266kts
12-Dec-17 20:59 47.302374 -122.014964 301 8015ft 277kts
12-Dec-17 21:00 47.345976 -122.103551 305 7203ft 271kts
12-Dec-17 21:01 47.390757 -122.190778 305 5724ft 268kts
12-Dec-17 21:02 47.434448 -122.279117 305 4347ft 262kts
12-Dec-17 21:03 47.470708 -122.358351 305 3952ft 224kts
12-Dec-17 21:04 47.504455 -122.420684 319 3836ft 187kts
12-Dec-17 21:05 47.546903 -122.457767 347 2736ft 177kts
12-Dec-17 21:06 47.593440 -122.456153 29 1653ft 164kts
12-Dec-17 21:07 47.615551 -122.402694 84 1089ft 156kts
12-Dec-17 21:08 47.596084 -122.354131 157 698ft 148kts
12-Dec-17 21:09 47.558592 -122.326978 149 363ft 151kts
12-Dec-17 21:10 47.527974 -122.300712 150 17ft 51kts
12-Dec-17 21:11 47.523229 -122.295284 40 17ft 0kts
12-Dec-17 21:12 47.523478 -122.295340 334 17ft 6kts

Navigation Log

Ident Type
Flight plan parsing failed, navigation log unavailable